createdAt,value
2019-03-21T00:01:47.868Z,99.90
2019-03-21T00:11:25.672Z,99.90
2019-03-21T00:14:27.208Z,99.90
2019-03-21T00:17:29.361Z,99.90
2019-03-21T00:20:19.550Z,99.90
2019-03-21T00:23:28.434Z,99.90
2019-03-21T00:26:31.284Z,99.90
2019-03-21T00:29:31.500Z,99.90
2019-03-21T00:32:33.203Z,99.90
2019-03-21T00:35:40.873Z,99.90
2019-03-21T00:38:42.302Z,99.90
2019-03-21T00:41:43.009Z,99.90
2019-03-21T00:44:44.798Z,99.90
2019-03-21T00:47:46.264Z,99.90
2019-03-21T00:50:52.196Z,99.90
2019-03-21T00:53:53.574Z,99.90
2019-03-21T00:59:55.435Z,99.90
2019-03-21T01:02:45.547Z,99.90
2019-03-21T01:09:14.999Z,99.90
2019-03-21T01:12:16.186Z,99.90
2019-03-21T01:15:17.099Z,99.90
2019-03-21T01:18:18.301Z,99.90
2019-03-21T01:21:19.368Z,99.90
2019-03-21T01:27:23.745Z,99.90
2019-03-21T01:33:38.839Z,99.90
2019-03-21T01:43:30.071Z,99.90
2019-03-21T01:46:31.212Z,99.90
2019-03-21T01:49:33.091Z,99.90
2019-03-21T01:52:34.559Z,99.90
2019-03-21T01:55:35.954Z,99.90
2019-03-21T01:58:36.340Z,99.90
2019-03-21T02:01:26.512Z,99.90
2019-03-21T02:11:07.903Z,99.90
2019-03-21T02:14:09.675Z,99.90
2019-03-21T02:17:11.003Z,99.90
2019-03-21T02:20:12.376Z,99.90
2019-03-21T02:23:13.695Z,99.90
2019-03-21T02:26:14.968Z,99.90
2019-03-21T02:29:16.131Z,99.90
2019-03-21T02:32:17.277Z,99.90
2019-03-21T02:35:19.060Z,99.90
2019-03-21T02:38:26.020Z,99.90
2019-03-21T02:41:28.133Z,99.90
2019-03-21T02:44:29.781Z,99.90
2019-03-21T02:47:31.251Z,99.90
2019-03-21T02:50:32.808Z,99.90
2019-03-21T02:53:34.549Z,99.90
2019-03-21T02:56:36.128Z,99.90
2019-03-21T02:59:26.233Z,99.90
2019-03-21T03:05:55.287Z,99.90
2019-03-21T03:12:03.253Z,99.90
2019-03-21T03:14:53.376Z,99.90
2019-03-21T03:21:29.662Z,99.90
2019-03-21T03:24:31.431Z,99.90
2019-03-21T03:27:31.565Z,99.90
2019-03-21T03:30:40.756Z,99.90
2019-03-21T03:33:42.092Z,99.90
2019-03-21T03:36:32.459Z,99.90
2019-03-21T03:42:56.841Z,99.90
2019-03-21T03:45:58.201Z,99.90
2019-03-21T03:49:07.856Z,99.90
2019-03-21T03:51:58.071Z,99.90
2019-03-21T03:54:48.197Z,99.90
2019-03-21T03:57:49.984Z,99.90
2019-03-21T04:00:51.442Z,99.90
2019-03-21T04:03:41.857Z,99.90
2019-03-21T04:06:50.862Z,99.90
2019-03-21T04:09:57.867Z,99.90
2019-03-21T04:12:59.276Z,99.90
2019-03-21T04:16:00.936Z,99.90
2019-03-21T04:19:02.495Z,99.90
2019-03-21T04:22:03.903Z,99.90
2019-03-21T04:25:05.265Z,99.90
2019-03-21T04:28:06.657Z,99.90
2019-03-21T04:31:08.116Z,99.90
2019-03-21T04:34:09.919Z,99.90
2019-03-21T04:37:10.052Z,99.90
2019-03-21T04:43:43.332Z,99.90
2019-03-21T04:46:43.486Z,99.90
2019-03-21T04:49:52.510Z,99.90
2019-03-21T04:52:53.596Z,99.90
2019-03-21T04:55:54.567Z,99.90
2019-03-21T04:58:55.678Z,99.90
2019-03-21T05:01:57.511Z,99.90
2019-03-21T05:04:59.339Z,99.90
2019-03-21T05:08:00.486Z,99.90
2019-03-21T05:14:08.952Z,99.90
2019-03-21T05:17:09.877Z,99.90
2019-03-21T05:20:10.995Z,99.90
2019-03-21T05:23:12.322Z,99.90
2019-03-21T05:26:12.629Z,99.90
2019-03-21T05:29:13.660Z,99.90
2019-03-21T05:32:15.667Z,99.90
2019-03-21T05:35:16.672Z,99.90
2019-03-21T05:38:17.568Z,99.90
2019-03-21T05:44:25.642Z,99.90
2019-03-21T05:47:27.739Z,99.90
2019-03-21T05:50:29.491Z,99.90
2019-03-21T05:53:30.573Z,99.90
2019-03-21T05:56:31.901Z,99.90
2019-03-21T05:59:33.687Z,99.90
2019-03-21T06:02:35.019Z,99.90
2019-03-21T06:05:36.247Z,99.90
2019-03-21T06:08:37.628Z,99.90
2019-03-21T06:14:45.915Z,99.90
2019-03-21T06:17:47.935Z,99.90
2019-03-21T06:20:49.516Z,99.90
2019-03-21T06:23:50.780Z,99.10
2019-03-21T06:26:52.084Z,98.30
2019-03-21T06:29:53.268Z,98.00
2019-03-21T06:32:54.363Z,98.10
2019-03-21T06:35:55.453Z,99.90
2019-03-21T06:38:57.133Z,95.10
2019-03-21T06:45:05.347Z,94.20
2019-03-21T06:48:07.268Z,93.30
2019-03-21T06:54:12.008Z,92.50
2019-03-21T07:04:07.065Z,88.30
2019-03-21T07:07:08.437Z,88.50
2019-03-21T07:10:08.539Z,88.50
2019-03-21T07:13:15.553Z,87.60
2019-03-21T07:16:17.101Z,87.20
2019-03-21T07:19:18.105Z,83.70
2019-03-21T07:22:19.595Z,81.00
2019-03-21T07:25:21.175Z,80.50
2019-03-21T07:28:22.311Z,77.90
2019-03-21T07:31:24.200Z,74.30
2019-03-21T07:34:25.625Z,72.90
2019-03-21T07:40:49.251Z,65.90
2019-03-21T07:43:56.839Z,66.00
2019-03-21T07:46:58.337Z,63.40
2019-03-21T07:49:59.752Z,63.90
2019-03-21T07:53:01.808Z,63.20
2019-03-21T07:56:03.661Z,64.70
2019-03-21T07:59:03.959Z,58.80
2019-03-21T08:02:04.944Z,57.20
2019-03-21T08:05:06.159Z,56.70
2019-03-21T08:08:08.085Z,57.40
2019-03-21T08:11:09.640Z,54.40
2019-03-21T08:14:16.768Z,55.10
2019-03-21T08:17:18.612Z,54.20
2019-03-21T08:20:19.862Z,51.90
2019-03-21T08:23:21.372Z,50.30
2019-03-21T08:26:22.443Z,50.50
2019-03-21T08:29:24.439Z,48.50
2019-03-21T08:32:25.508Z,44.80
2019-03-21T08:38:59.181Z,67.60
2019-03-21T08:42:00.398Z,73.20
2019-03-21T08:45:07.493Z,44.00
2019-03-21T08:48:09.675Z,44.00
2019-03-21T08:54:39.180Z,42.40
2019-03-21T09:07:35.816Z,41.60
2019-03-21T09:10:37.690Z,41.40
2019-03-21T09:13:38.975Z,39.80
2019-03-21T09:19:47.415Z,40.00
2019-03-21T09:22:49.056Z,37.50
2019-03-21T09:25:51.352Z,38.00
2019-03-21T09:28:52.459Z,36.90
2019-03-21T09:31:54.876Z,35.40
2019-03-21T09:38:18.329Z,35.60
2019-03-21T09:41:20.339Z,34.30
2019-03-21T09:44:22.020Z,34.80
2019-03-21T09:47:29.592Z,33.80
2019-03-21T09:50:30.748Z,33.80
2019-03-21T09:53:31.803Z,32.60
2019-03-21T09:56:23.974Z,33.40
2019-03-21T09:59:17.303Z,34.10
2019-03-21T10:02:19.095Z,34.30
2019-03-21T10:05:20.279Z,32.60
2019-03-21T10:08:22.119Z,33.80
2019-03-21T10:11:23.248Z,36.00
2019-03-21T10:14:24.483Z,36.00
2019-03-21T10:20:33.407Z,35.30
2019-03-21T10:23:23.716Z,39.60
2019-03-21T10:29:59.175Z,33.80
2019-03-21T10:32:49.359Z,33.90
2019-03-21T10:35:59.246Z,32.80
2019-03-21T10:39:00.813Z,33.80
2019-03-21T10:42:02.096Z,34.90
2019-03-21T10:45:03.937Z,33.70
2019-03-21T10:51:07.540Z,31.10
2019-03-21T10:54:15.595Z,30.30
2019-03-21T10:57:17.151Z,30.60
2019-03-21T11:00:18.742Z,30.20
2019-03-21T11:03:19.754Z,29.80
2019-03-21T11:06:21.054Z,28.50
2019-03-21T11:09:22.096Z,28.60
2019-03-21T11:12:23.302Z,28.80
2019-03-21T11:15:24.584Z,29.00
2019-03-21T11:21:33.015Z,30.20
2019-03-21T11:24:34.306Z,30.20
2019-03-21T11:27:35.447Z,28.80
2019-03-21T11:30:39.672Z,28.70
2019-03-21T11:33:40.685Z,28.30
2019-03-21T11:36:40.962Z,27.80
2019-03-21T11:39:49.878Z,28.70
2019-03-21T11:42:51.229Z,28.40
2019-03-21T11:45:55.224Z,29.20
2019-03-21T11:52:03.237Z,28.10
2019-03-21T11:55:04.453Z,28.10
2019-03-21T11:58:05.889Z,27.30
2019-03-21T12:01:07.595Z,26.50
2019-03-21T12:04:09.676Z,26.10
2019-03-21T12:07:11.275Z,26.70
2019-03-21T12:13:35.044Z,26.90
2019-03-21T12:16:36.689Z,27.20
2019-03-21T12:22:47.251Z,27.50
2019-03-21T12:25:47.884Z,27.80
2019-03-21T12:32:22.306Z,27.10
2019-03-21T12:35:23.447Z,27.20
2019-03-21T12:38:25.433Z,27.60
2019-03-21T12:41:26.686Z,26.30
2019-03-21T12:44:27.899Z,26.80
2019-03-21T12:47:31.413Z,26.70
2019-03-21T12:53:54.845Z,26.00
2019-03-21T12:56:55.907Z,28.00
2019-03-21T12:59:56.887Z,27.60
2019-03-21T13:02:58.250Z,27.50
2019-03-21T13:06:00.153Z,28.60
2019-03-21T13:09:01.789Z,29.90
2019-03-21T13:12:03.620Z,29.90
2019-03-21T13:15:04.687Z,29.70
2019-03-21T13:18:06.263Z,28.60
2019-03-21T13:27:21.241Z,31.40
2019-03-21T13:30:22.561Z,31.70
2019-03-21T13:33:24.454Z,32.80
2019-03-21T13:36:26.191Z,31.20
2019-03-21T13:39:27.322Z,29.70
2019-03-21T13:42:28.421Z,27.80
2019-03-21T13:45:29.795Z,26.60
2019-03-21T13:55:03.419Z,26.90
2019-03-21T13:58:05.381Z,28.10
2019-03-21T14:01:06.447Z,28.30
2019-03-21T14:04:08.306Z,27.40
2019-03-21T14:07:08.732Z,27.40
2019-03-21T14:13:44.221Z,26.30
2019-03-21T14:16:45.971Z,27.00
2019-03-21T14:19:47.176Z,27.00
2019-03-21T14:25:55.095Z,27.00
2019-03-21T14:28:56.559Z,26.80
2019-03-21T14:31:57.718Z,25.70
2019-03-21T14:34:58.960Z,25.80
2019-03-21T14:38:00.149Z,25.70
2019-03-21T14:44:34.657Z,26.30
2019-03-21T14:47:36.420Z,26.50
2019-03-21T14:57:32.534Z,26.80
2019-03-21T15:04:06.140Z,26.80
2019-03-21T15:07:07.519Z,27.20
2019-03-21T15:10:09.436Z,27.50
2019-03-21T15:13:11.328Z,28.00
2019-03-21T15:16:12.759Z,27.20
2019-03-21T15:19:13.783Z,27.40
2019-03-21T15:22:15.284Z,27.80
2019-03-21T15:25:22.918Z,28.10
2019-03-21T15:28:24.904Z,27.70
2019-03-21T15:31:26.267Z,27.60
2019-03-21T15:34:27.403Z,28.50
2019-03-21T15:37:27.586Z,28.30
2019-03-21T15:40:36.502Z,27.90
2019-03-21T15:43:38.400Z,29.20
2019-03-21T15:46:40.292Z,29.30
2019-03-21T15:49:42.382Z,29.30
2019-03-21T15:52:43.477Z,29.30
2019-03-21T15:58:53.478Z,30.40
2019-03-21T16:01:43.621Z,30.50
2019-03-21T16:04:52.819Z,30.60
2019-03-21T16:07:54.043Z,31.30
2019-03-21T16:10:55.245Z,32.00
2019-03-21T16:13:56.655Z,32.60
2019-03-21T16:16:58.267Z,33.40
2019-03-21T16:19:59.618Z,32.90
2019-03-21T16:23:00.738Z,33.20
2019-03-21T16:29:15.575Z,33.80
2019-03-21T16:32:17.345Z,34.80
2019-03-21T16:35:18.295Z,34.70
2019-03-21T16:38:20.022Z,35.20
2019-03-21T16:41:21.805Z,35.10
2019-03-21T16:57:35.047Z,37.80
2019-03-21T17:06:33.508Z,38.00
2019-03-21T17:09:44.881Z,39.10
2019-03-21T17:12:46.361Z,39.10
2019-03-21T17:15:48.107Z,38.60
2019-03-21T17:18:49.471Z,39.30
2019-03-21T17:21:50.578Z,39.60
2019-03-21T17:24:52.259Z,39.90
2019-03-21T17:27:59.348Z,40.30
2019-03-21T17:30:59.803Z,40.60
2019-03-21T17:34:03.943Z,40.20
2019-03-21T17:37:04.259Z,40.50
2019-03-21T17:40:05.527Z,40.70
2019-03-21T17:43:06.995Z,41.20
2019-03-21T17:46:08.478Z,41.50
2019-03-21T17:49:09.574Z,42.50
2019-03-21T17:52:10.736Z,43.30
2019-03-21T17:55:12.536Z,43.60
2019-03-21T17:58:20.236Z,44.20
2019-03-21T18:01:20.883Z,44.60
2019-03-21T18:04:22.219Z,45.30
2019-03-21T18:07:23.879Z,45.70
2019-03-21T18:10:25.457Z,45.90
2019-03-21T18:13:26.511Z,46.30
2019-03-21T18:16:27.606Z,47.70
2019-03-21T18:19:29.492Z,48.00
2019-03-21T18:22:30.837Z,47.70
2019-03-21T18:25:31.816Z,48.00
2019-03-21T18:28:38.997Z,47.80
2019-03-21T18:31:41.072Z,48.10
2019-03-21T18:34:42.104Z,48.20
2019-03-21T18:37:43.639Z,48.10
2019-03-21T18:40:45.130Z,49.10
2019-03-21T18:43:46.264Z,49.80
2019-03-21T18:46:48.167Z,50.60
2019-03-21T18:49:50.193Z,51.60
2019-03-21T18:52:51.735Z,51.80
2019-03-21T18:55:52.802Z,52.50
2019-03-21T18:58:59.718Z,52.70
2019-03-21T19:02:01.965Z,53.90
2019-03-21T19:05:03.483Z,54.70
2019-03-21T19:08:04.923Z,55.40
2019-03-21T19:11:10.555Z,57.00
2019-03-21T19:17:44.993Z,56.90
2019-03-21T19:20:46.299Z,61.70
2019-03-21T19:23:48.427Z,64.80
2019-03-21T19:26:49.337Z,68.20
2019-03-21T19:29:56.320Z,73.40
2019-03-21T19:32:57.855Z,78.30
2019-03-21T19:35:59.437Z,83.00
2019-03-21T19:39:00.556Z,88.70
2019-03-21T19:42:02.155Z,90.90
2019-03-21T19:45:03.179Z,91.80
2019-03-21T19:48:05.013Z,92.80
2019-03-21T19:51:06.880Z,92.60
2019-03-21T19:54:08.190Z,93.00
2019-03-21T19:57:10.048Z,93.50
2019-03-21T20:03:18.911Z,94.10
2019-03-21T20:06:19.961Z,94.50
2019-03-21T20:09:21.635Z,94.90
2019-03-21T20:12:25.483Z,94.80
2019-03-21T20:15:27.238Z,94.70
2019-03-21T20:18:29.502Z,94.20
2019-03-21T20:21:31.323Z,94.00
2019-03-21T20:24:38.289Z,94.30
2019-03-21T20:37:22.575Z,94.10
2019-03-21T20:40:23.535Z,94.80
2019-03-21T20:43:24.941Z,94.80
2019-03-21T20:46:25.267Z,94.70
2019-03-21T20:49:34.403Z,93.70
2019-03-21T20:52:36.185Z,94.00
2019-03-21T20:55:26.287Z,94.40
2019-03-21T20:58:35.491Z,95.10
2019-03-21T21:04:43.876Z,95.60
2019-03-21T21:07:44.933Z,96.20
2019-03-21T21:14:03.115Z,96.80
2019-03-21T21:16:50.911Z,96.80
2019-03-21T21:19:52.042Z,98.40
2019-03-21T21:22:53.995Z,98.90
2019-03-21T21:26:05.034Z,99.20
2019-03-21T21:28:47.883Z,99.00
2019-03-21T21:38:23.643Z,99.90
2019-03-21T21:41:25.575Z,99.90
2019-03-21T21:44:26.768Z,99.90
2019-03-21T21:47:28.479Z,99.90
2019-03-21T21:50:30.216Z,99.90
2019-03-21T21:53:31.368Z,99.90
2019-03-21T21:56:21.459Z,99.90
2019-03-21T21:59:30.481Z,99.90
2019-03-21T22:05:39.259Z,99.90
2019-03-21T22:08:41.265Z,99.90
2019-03-21T22:11:43.127Z,99.90
2019-03-21T22:14:44.532Z,99.90
2019-03-21T22:17:46.452Z,99.90
2019-03-21T22:20:47.795Z,99.90
2019-03-21T22:23:49.361Z,99.90
2019-03-21T22:26:51.426Z,99.90
2019-03-21T22:29:52.324Z,99.90
2019-03-21T22:39:22.751Z,99.90
2019-03-21T22:42:29.721Z,99.90
2019-03-21T22:45:34.523Z,99.90
2019-03-21T22:48:35.546Z,99.90
2019-03-21T22:51:36.931Z,99.90
2019-03-21T22:54:38.192Z,99.90
2019-03-21T22:57:40.166Z,99.90
2019-03-21T23:00:44.317Z,99.90
2019-03-21T23:03:52.253Z,99.90
2019-03-21T23:06:53.552Z,99.90
2019-03-21T23:09:54.588Z,99.90
2019-03-21T23:12:56.359Z,99.90
2019-03-21T23:15:57.445Z,99.90
2019-03-21T23:18:58.490Z,99.90
2019-03-21T23:22:00.093Z,99.90
2019-03-21T23:25:02.147Z,99.90
2019-03-21T23:28:09.410Z,99.90
2019-03-21T23:31:11.006Z,99.90
2019-03-21T23:37:19.719Z,99.90
2019-03-21T23:40:20.871Z,99.90
2019-03-21T23:43:22.652Z,99.90
2019-03-21T23:46:24.231Z,99.90
2019-03-21T23:49:25.847Z,99.90
2019-03-21T23:56:00.750Z,99.90
2019-03-21T23:59:02.408Z,99.90
